Livingston, KY (40445)

10:20 AM EDT on July 29, 2014 (GMT -0400)
Southern McKee (KKYMCKEE2) Elev 1138 ft | 37.36 °N, 83.94 °W | Change Station

Current weather conditions updated 5 seconds ago

Clear
Clear
62.7 °F
Feels Like 62.7 °F
N
6.0
Wind Variable Wind from North
Gusts 6.0 mph

Today is forecast to be nearly the same temperature as yesterday.

Today
High -- | Low -- °F
--% Chance of Precip.
Yesterday
High -- | Low -- °F
Precip. -- in
6:39 AM 8:47 PM
Waxing Crescent, 6% visible
Pressure 30.04 in
Visibility 10.0 miles
Clouds Clear
Dew Point 56 °F
Humidity 78%
Rainfall 0.00 in
Snow Depth Not available.
UV 2 out of 12
Pollen 4.00 out of 12
Air Quality Not available.
Flu Activity Not available.
METAR KLOZ 291253Z AUTO 35006KT 10SM CLR 16/11 A3006 RMK AO2 SLP171 T01610111

More Conditions Fewer Conditions

Pressure 30.04 in
Visibility 10.0 miles
Clouds Clear
Dew Point 56 °F
Humidity 78%
Rainfall 0.00 in
Snow Depth Not available.
UV 2 out of 12
Pollen 4.00 out of 12
Air Quality Not available.
Flu Activity Not available.
METAR KLOZ 291253Z AUTO 35006KT 10SM CLR 16/11 A3006 RMK AO2 SLP171 T01610111

More Conditions Fewer Conditions

10-Day Weather Forecast

Almanac

Astronomy

Jul. 29, 2014 Rise Set
Actual Time 6:39 AM EDT 8:47 PM EDT
Civil Twilight 6:09 AM EDT 9:16 PM EDT
Nautical Twilight 5:34 AM EDT 9:51 PM EDT
Astronomical Twilight 4:55 AM EDT 10:30 PM EDT
Moon 9:10 AM EDT 10:04 PM EDT
Length of Visible Light 15h 06m
Length of Day
14h 08m
Tomorrow will be 1m 43s shorter.
Waxing Crescent, 6% of the Moon is Illuminated
Today
Waxing Crescent
Aug 3
First Quarter
Aug 10
Full
Aug 17
Last Quarter
Aug 25
New

Today's Extremes

State Highs State Lows

Community

WunderPhotos

Upload Photos

1,738,738 photos uploaded!

WunderBlogs® & News

Nearby

Snow Depth

Station Depth Elevation
No new snow has been reported.

Earthquake Activity

City Distance Mag. Time & Date
No recent earthquake activity has been reported nearby.
Minimum magnitude displayed is 2.5.

Coastal Water Temperatures

Place Temperature
No Stations Reporting

Nearby Weather Stations

Station Location Temp. Dew Point Humidity Wind Precip. Elev Updated Type
Southern McKee, McKee, KY 62.7 °F 56 °F 78% North  at  6.0 mph 0.00 in / hr 1138 ft 10:20 AM EDT Rapid Fire
Bratcher Lane, Berea, KY 64.4 °F 55 °F 72% SW  at  2.2 mph - / hr 1001 ft 10:13 AM EDT Normal
MSWO, London, KY 64.8 °F 54 °F 69% West  at  2.9 mph 0.00 in / hr 1163 ft 10:20 AM EDT Rapid Fire
HALLS BACKYARD WEATHER, SCIENCE HILL, KY 65.6 °F 51 °F 60% SW  at  0.0 mph 0.00 in / hr 1076 ft 10:19 AM EDT Normal
RMR - Somerset, Ferguson, KY 62.8 °F 53 °F 70% West  at  4.0 mph 0.00 in / hr 909 ft 10:10 AM EDT Normal

Show More Stations Show Fewer Stations